sensor_id;sensor_type;location;lat;lon;timestamp;temperature;humidity
3626;DHT22;1827;50.534;8.316;2023-08-06T00:01:38;14.00;1.00
3626;DHT22;1827;50.534;8.316;2023-08-06T00:04:04;14.10;1.00
3626;DHT22;1827;50.534;8.316;2023-08-06T00:06:29;14.20;1.00
3626;DHT22;1827;50.534;8.316;2023-08-06T00:08:55;14.20;1.00
3626;DHT22;1827;50.534;8.316;2023-08-06T00:11:21;14.10;1.00
3626;DHT22;1827;50.534;8.316;2023-08-06T00:13:46;14.20;1.00
3626;DHT22;1827;50.534;8.316;2023-08-06T00:16:12;14.20;1.00
3626;DHT22;1827;50.534;8.316;2023-08-06T00:18:38;14.30;1.00
3626;DHT22;1827;50.534;8.316;2023-08-06T00:21:04;14.10;1.00
3626;DHT22;1827;50.534;8.316;2023-08-06T00:23:30;14.20;1.00
3626;DHT22;1827;50.534;8.316;2023-08-06T00:25:55;14.10;1.00
3626;DHT22;1827;50.534;8.316;2023-08-06T00:28:21;14.00;1.00
3626;DHT22;1827;50.534;8.316;2023-08-06T00:30:51;14.00;1.00
3626;DHT22;1827;50.534;8.316;2023-08-06T00:33:17;14.00;1.00
3626;DHT22;1827;50.534;8.316;2023-08-06T00:35:43;14.00;26.70
3626;DHT22;1827;50.534;8.316;2023-08-06T00:38:08;14.10;98.40
3626;DHT22;1827;50.534;8.316;2023-08-06T00:40:34;14.10;99.90
3626;DHT22;1827;50.534;8.316;2023-08-06T00:42:59;14.10;99.90
3626;DHT22;1827;50.534;8.316;2023-08-06T00:45:25;14.20;99.90
3626;DHT22;1827;50.534;8.316;2023-08-06T00:47:51;14.30;99.90
3626;DHT22;1827;50.534;8.316;2023-08-06T00:50:17;14.20;99.90
3626;DHT22;1827;50.534;8.316;2023-08-06T00:52:43;14.30;99.90
3626;DHT22;1827;50.534;8.316;2023-08-06T00:55:09;14.20;99.90
3626;DHT22;1827;50.534;8.316;2023-08-06T00:57:35;14.20;99.90
3626;DHT22;1827;50.534;8.316;2023-08-06T01:00:00;14.20;99.90
3626;DHT22;1827;50.534;8.316;2023-08-06T01:02:26;14.20;99.90
3626;DHT22;1827;50.534;8.316;2023-08-06T01:04:52;14.10;99.90
3626;DHT22;1827;50.534;8.316;2023-08-06T01:12:34;14.10;1.00
3626;DHT22;1827;50.534;8.316;2023-08-06T01:15:07;14.20;1.00
3626;DHT22;1827;50.534;8.316;2023-08-06T01:17:34;14.30;1.00
3626;DHT22;1827;50.534;8.316;2023-08-06T01:20:00;14.30;1.00
3626;DHT22;1827;50.534;8.316;2023-08-06T01:22:26;14.30;1.00
3626;DHT22;1827;50.534;8.316;2023-08-06T01:24:52;14.30;1.00
3626;DHT22;1827;50.534;8.316;2023-08-06T01:27:26;14.20;1.00
3626;DHT22;1827;50.534;8.316;2023-08-06T01:30:00;14.20;1.00
3626;DHT22;1827;50.534;8.316;2023-08-06T01:32:28;14.30;1.00
3626;DHT22;1827;50.534;8.316;2023-08-06T01:34:54;14.30;54.00
3626;DHT22;1827;50.534;8.316;2023-08-06T01:37:20;14.40;81.20
3626;DHT22;1827;50.534;8.316;2023-08-06T01:39:46;14.50;99.90
3626;DHT22;1827;50.534;8.316;2023-08-06T01:42:12;14.50;38.70
3626;DHT22;1827;50.534;8.316;2023-08-06T01:44:39;14.40;1.00
3626;DHT22;1827;50.534;8.316;2023-08-06T01:47:04;14.40;26.40
3626;DHT22;1827;50.534;8.316;2023-08-06T01:49:32;14.40;22.40
3626;DHT22;1827;50.534;8.316;2023-08-06T01:51:57;14.40;1.00
3626;DHT22;1827;50.534;8.316;2023-08-06T01:54:23;14.40;1.00
3626;DHT22;1827;50.534;8.316;2023-08-06T01:56:48;14.40;1.00
3626;DHT22;1827;50.534;8.316;2023-08-06T01:59:14;14.30;1.00
3626;DHT22;1827;50.534;8.316;2023-08-06T02:01:40;14.30;1.00
3626;DHT22;1827;50.534;8.316;2023-08-06T02:04:07;14.40;1.00
3626;DHT22;1827;50.534;8.316;2023-08-06T02:06:33;14.40;1.00
3626;DHT22;1827;50.534;8.316;2023-08-06T02:08:58;14.70;56.40
3626;DHT22;1827;50.534;8.316;2023-08-06T02:11:25;14.70;1.00
3626;DHT22;1827;50.534;8.316;2023-08-06T02:13:50;14.70;1.00
3626;DHT22;1827;50.534;8.316;2023-08-06T02:16:18;14.70;1.00
3626;DHT22;1827;50.534;8.316;2023-08-06T02:18:43;14.60;1.00
3626;DHT22;1827;50.534;8.316;2023-08-06T02:21:09;14.50;1.00
3626;DHT22;1827;50.534;8.316;2023-08-06T02:23:35;14.40;1.00
3626;DHT22;1827;50.534;8.316;2023-08-06T02:26:01;14.40;1.00
3626;DHT22;1827;50.534;8.316;2023-08-06T02:28:28;14.40;1.00
3626;DHT22;1827;50.534;8.316;2023-08-06T02:30:53;14.40;1.00
3626;DHT22;1827;50.534;8.316;2023-08-06T02:33:19;14.40;1.00
3626;DHT22;1827;50.534;8.316;2023-08-06T02:35:45;14.40;1.00
3626;DHT22;1827;50.534;8.316;2023-08-06T02:38:10;14.40;1.00
3626;DHT22;1827;50.534;8.316;2023-08-06T02:40:36;14.40;1.00
3626;DHT22;1827;50.534;8.316;2023-08-06T02:43:01;14.40;1.00
3626;DHT22;1827;50.534;8.316;2023-08-06T02:45:28;14.50;1.00
3626;DHT22;1827;50.534;8.316;2023-08-06T02:47:54;14.60;1.00
3626;DHT22;1827;50.534;8.316;2023-08-06T02:50:19;14.60;1.00
3626;DHT22;1827;50.534;8.316;2023-08-06T02:52:45;14.60;1.00
3626;DHT22;1827;50.534;8.316;2023-08-06T02:55:11;14.60;1.00
3626;DHT22;1827;50.534;8.316;2023-08-06T02:57:41;14.60;1.00
3626;DHT22;1827;50.534;8.316;2023-08-06T03:00:06;14.40;99.90
3626;DHT22;1827;50.534;8.316;2023-08-06T03:02:32;14.40;99.90
3626;DHT22;1827;50.534;8.316;2023-08-06T03:05:04;14.50;99.90
3626;DHT22;1827;50.534;8.316;2023-08-06T03:07:35;14.50;99.90
3626;DHT22;1827;50.534;8.316;2023-08-06T03:10:09;14.40;99.90
3626;DHT22;1827;50.534;8.316;2023-08-06T03:12:35;14.40;99.90
3626;DHT22;1827;50.534;8.316;2023-08-06T03:15:02;14.30;99.90
3626;DHT22;1827;50.534;8.316;2023-08-06T03:17:28;14.30;99.90
3626;DHT22;1827;50.534;8.316;2023-08-06T03:19:54;14.30;99.90
3626;DHT22;1827;50.534;8.316;2023-08-06T03:22:20;14.20;1.00
3626;DHT22;1827;50.534;8.316;2023-08-06T03:24:49;14.20;1.00
3626;DHT22;1827;50.534;8.316;2023-08-06T03:27:17;14.40;1.00
3626;DHT22;1827;50.534;8.316;2023-08-06T03:29:43;14.40;1.00
3626;DHT22;1827;50.534;8.316;2023-08-06T03:32:08;14.40;1.00
3626;DHT22;1827;50.534;8.316;2023-08-06T03:34:34;14.40;1.00
3626;DHT22;1827;50.534;8.316;2023-08-06T03:37:01;14.40;1.00
3626;DHT22;1827;50.534;8.316;2023-08-06T03:39:26;14.40;1.00
3626;DHT22;1827;50.534;8.316;2023-08-06T03:41:52;14.40;1.00
3626;DHT22;1827;50.534;8.316;2023-08-06T03:44:18;14.40;1.00
3626;DHT22;1827;50.534;8.316;2023-08-06T03:46:44;14.40;1.00
3626;DHT22;1827;50.534;8.316;2023-08-06T03:49:10;14.30;1.00
3626;DHT22;1827;50.534;8.316;2023-08-06T03:51:35;14.40;1.00
3626;DHT22;1827;50.534;8.316;2023-08-06T03:54:01;14.40;1.00
3626;DHT22;1827;50.534;8.316;2023-08-06T03:56:27;14.40;1.00
3626;DHT22;1827;50.534;8.316;2023-08-06T03:58:53;14.40;1.00
3626;DHT22;1827;50.534;8.316;2023-08-06T04:01:18;14.30;1.00
3626;DHT22;1827;50.534;8.316;2023-08-06T04:03:46;14.30;1.00
3626;DHT22;1827;50.534;8.316;2023-08-06T04:06:12;14.30;1.00
3626;DHT22;1827;50.534;8.316;2023-08-06T04:08:37;14.40;1.00
3626;DHT22;1827;50.534;8.316;2023-08-06T04:11:03;14.30;1.00
3626;DHT22;1827;50.534;8.316;2023-08-06T04:13:29;14.20;1.00
3626;DHT22;1827;50.534;8.316;2023-08-06T04:16:00;14.20;1.00
3626;DHT22;1827;50.534;8.316;2023-08-06T04:18:27;14.20;1.00
3626;DHT22;1827;50.534;8.316;2023-08-06T04:20:54;14.20;99.90
3626;DHT22;1827;50.534;8.316;2023-08-06T04:23:21;14.20;99.90
3626;DHT22;1827;50.534;8.316;2023-08-06T04:25:46;14.20;99.90
3626;DHT22;1827;50.534;8.316;2023-08-06T04:28:13;14.30;99.90
3626;DHT22;1827;50.534;8.316;2023-08-06T04:30:39;14.30;99.90
3626;DHT22;1827;50.534;8.316;2023-08-06T04:33:05;14.40;99.90
3626;DHT22;1827;50.534;8.316;2023-08-06T04:35:31;14.40;99.90
3626;DHT22;1827;50.534;8.316;2023-08-06T04:37:57;14.50;99.90
3626;DHT22;1827;50.534;8.316;2023-08-06T04:40:23;14.40;99.90
3626;DHT22;1827;50.534;8.316;2023-08-06T04:42:49;14.50;99.90
3626;DHT22;1827;50.534;8.316;2023-08-06T04:45:14;14.60;99.90
3626;DHT22;1827;50.534;8.316;2023-08-06T04:47:40;14.70;99.90
3626;DHT22;1827;50.534;8.316;2023-08-06T04:50:06;14.70;99.90
3626;DHT22;1827;50.534;8.316;2023-08-06T04:52:33;14.90;99.90
3626;DHT22;1827;50.534;8.316;2023-08-06T04:54:59;15.00;99.90
3626;DHT22;1827;50.534;8.316;2023-08-06T04:57:24;15.00;99.90
3626;DHT22;1827;50.534;8.316;2023-08-06T04:59:50;15.10;9.50
3626;DHT22;1827;50.534;8.316;2023-08-06T05:02:15;15.00;1.00
3626;DHT22;1827;50.534;8.316;2023-08-06T05:04:41;15.10;1.00
3626;DHT22;1827;50.534;8.316;2023-08-06T05:07:07;15.20;1.00
3626;DHT22;1827;50.534;8.316;2023-08-06T05:09:32;15.20;1.00
3626;DHT22;1827;50.534;8.316;2023-08-06T05:12:00;15.20;1.00
3626;DHT22;1827;50.534;8.316;2023-08-06T05:14:26;15.30;1.00
3626;DHT22;1827;50.534;8.316;2023-08-06T05:16:52;15.20;1.00
3626;DHT22;1827;50.534;8.316;2023-08-06T05:19:17;15.20;1.00
3626;DHT22;1827;50.534;8.316;2023-08-06T05:21:43;15.20;1.00
3626;DHT22;1827;50.534;8.316;2023-08-06T05:24:10;15.20;99.90
3626;DHT22;1827;50.534;8.316;2023-08-06T05:26:35;15.20;99.90
3626;DHT22;1827;50.534;8.316;2023-08-06T05:29:01;15.20;99.90
3626;DHT22;1827;50.534;8.316;2023-08-06T05:31:27;15.10;99.90
3626;DHT22;1827;50.534;8.316;2023-08-06T05:33:54;15.20;99.90
3626;DHT22;1827;50.534;8.316;2023-08-06T05:36:20;15.30;99.90
3626;DHT22;1827;50.534;8.316;2023-08-06T05:38:47;15.30;1.00
3626;DHT22;1827;50.534;8.316;2023-08-06T05:41:12;15.40;1.00
3626;DHT22;1827;50.534;8.316;2023-08-06T05:43:39;15.40;1.00
3626;DHT22;1827;50.534;8.316;2023-08-06T05:46:05;15.70;1.00
3626;DHT22;1827;50.534;8.316;2023-08-06T05:48:30;15.60;1.00
3626;DHT22;1827;50.534;8.316;2023-08-06T05:50:57;15.60;1.00
3626;DHT22;1827;50.534;8.316;2023-08-06T05:53:22;15.40;1.00
3626;DHT22;1827;50.534;8.316;2023-08-06T05:55:48;15.40;99.90
3626;DHT22;1827;50.534;8.316;2023-08-06T05:58:14;15.40;99.90
3626;DHT22;1827;50.534;8.316;2023-08-06T06:00:39;15.30;99.90
3626;DHT22;1827;50.534;8.316;2023-08-06T06:03:05;15.20;99.90
3626;DHT22;1827;50.534;8.316;2023-08-06T06:05:31;15.10;99.90
3626;DHT22;1827;50.534;8.316;2023-08-06T06:07:56;15.00;99.90
3626;DHT22;1827;50.534;8.316;2023-08-06T06:10:22;15.00;99.90
3626;DHT22;1827;50.534;8.316;2023-08-06T06:12:48;15.10;99.90
3626;DHT22;1827;50.534;8.316;2023-08-06T06:15:13;15.20;99.90
3626;DHT22;1827;50.534;8.316;2023-08-06T06:17:39;15.20;1.00
3626;DHT22;1827;50.534;8.316;2023-08-06T06:20:05;15.20;1.00
3626;DHT22;1827;50.534;8.316;2023-08-06T06:22:30;15.30;1.00
3626;DHT22;1827;50.534;8.316;2023-08-06T06:24:56;15.20;1.00
3626;DHT22;1827;50.534;8.316;2023-08-06T06:27:22;15.40;1.00
3626;DHT22;1827;50.534;8.316;2023-08-06T06:29:50;15.30;1.00
3626;DHT22;1827;50.534;8.316;2023-08-06T06:32:17;15.30;1.00
3626;DHT22;1827;50.534;8.316;2023-08-06T06:34:43;15.40;1.00
3626;DHT22;1827;50.534;8.316;2023-08-06T06:37:09;15.60;1.00
3626;DHT22;1827;50.534;8.316;2023-08-06T06:39:34;15.80;1.00
3626;DHT22;1827;50.534;8.316;2023-08-06T06:42:00;16.10;99.90
3626;DHT22;1827;50.534;8.316;2023-08-06T06:44:34;16.00;99.90
3626;DHT22;1827;50.534;8.316;2023-08-06T06:47:00;15.80;99.90
3626;DHT22;1827;50.534;8.316;2023-08-06T06:49:25;15.80;99.90
3626;DHT22;1827;50.534;8.316;2023-08-06T06:51:51;15.90;99.90
3626;DHT22;1827;50.534;8.316;2023-08-06T06:54:17;15.80;99.90
3626;DHT22;1827;50.534;8.316;2023-08-06T06:56:43;15.70;99.90
3626;DHT22;1827;50.534;8.316;2023-08-06T06:59:09;15.70;99.90
3626;DHT22;1827;50.534;8.316;2023-08-06T07:01:34;15.60;99.90
3626;DHT22;1827;50.534;8.316;2023-08-06T07:04:00;15.80;99.90
3626;DHT22;1827;50.534;8.316;2023-08-06T07:06:30;15.60;99.90
3626;DHT22;1827;50.534;8.316;2023-08-06T07:08:56;15.70;99.90
3626;DHT22;1827;50.534;8.316;2023-08-06T07:11:22;15.80;99.90
3626;DHT22;1827;50.534;8.316;2023-08-06T07:13:47;15.90;99.90
3626;DHT22;1827;50.534;8.316;2023-08-06T07:16:13;15.90;99.90
3626;DHT22;1827;50.534;8.316;2023-08-06T07:18:38;16.10;99.90
3626;DHT22;1827;50.534;8.316;2023-08-06T07:21:04;16.10;99.90
3626;DHT22;1827;50.534;8.316;2023-08-06T07:23:30;15.90;99.90
3626;DHT22;1827;50.534;8.316;2023-08-06T07:25:55;16.10;99.90
3626;DHT22;1827;50.534;8.316;2023-08-06T07:28:21;16.30;99.90
3626;DHT22;1827;50.534;8.316;2023-08-06T07:30:47;16.60;99.90
3626;DHT22;1827;50.534;8.316;2023-08-06T07:33:13;16.90;20.80
3626;DHT22;1827;50.534;8.316;2023-08-06T07:35:39;17.10;1.00
3626;DHT22;1827;50.534;8.316;2023-08-06T07:38:04;17.30;1.00
3626;DHT22;1827;50.534;8.316;2023-08-06T07:40:31;17.40;1.00
3626;DHT22;1827;50.534;8.316;2023-08-06T07:42:56;17.60;1.00
3626;DHT22;1827;50.534;8.316;2023-08-06T07:45:22;17.60;1.00
3626;DHT22;1827;50.534;8.316;2023-08-06T07:47:48;17.10;1.00
3626;DHT22;1827;50.534;8.316;2023-08-06T07:50:13;17.30;1.00
3626;DHT22;1827;50.534;8.316;2023-08-06T07:52:39;17.40;1.00
3626;DHT22;1827;50.534;8.316;2023-08-06T07:55:05;17.20;1.00
3626;DHT22;1827;50.534;8.316;2023-08-06T07:57:31;17.20;1.00
3626;DHT22;1827;50.534;8.316;2023-08-06T07:59:57;17.80;1.00
3626;DHT22;1827;50.534;8.316;2023-08-06T08:02:23;18.20;1.00
3626;DHT22;1827;50.534;8.316;2023-08-06T08:04:49;18.40;1.00
3626;DHT22;1827;50.534;8.316;2023-08-06T08:07:15;19.00;1.00
3626;DHT22;1827;50.534;8.316;2023-08-06T08:09:41;19.40;1.00
3626;DHT22;1827;50.534;8.316;2023-08-06T08:12:07;18.70;1.00
3626;DHT22;1827;50.534;8.316;2023-08-06T08:14:33;18.40;1.00
3626;DHT22;1827;50.534;8.316;2023-08-06T08:17:02;17.90;1.00
3626;DHT22;1827;50.534;8.316;2023-08-06T08:19:28;17.80;1.00
3626;DHT22;1827;50.534;8.316;2023-08-06T08:21:54;17.60;1.00
3626;DHT22;1827;50.534;8.316;2023-08-06T08:24:20;17.60;1.00
3626;DHT22;1827;50.534;8.316;2023-08-06T08:26:49;17.60;1.00
3626;DHT22;1827;50.534;8.316;2023-08-06T08:29:15;18.00;1.00
3626;DHT22;1827;50.534;8.316;2023-08-06T08:31:40;18.40;1.00
3626;DHT22;1827;50.534;8.316;2023-08-06T08:34:06;18.20;1.00
3626;DHT22;1827;50.534;8.316;2023-08-06T08:36:32;18.00;1.00
3626;DHT22;1827;50.534;8.316;2023-08-06T08:38:58;18.00;1.00
3626;DHT22;1827;50.534;8.316;2023-08-06T08:41:23;17.90;1.00
3626;DHT22;1827;50.534;8.316;2023-08-06T08:43:50;18.00;1.00
3626;DHT22;1827;50.534;8.316;2023-08-06T08:46:18;17.80;1.00
3626;DHT22;1827;50.534;8.316;2023-08-06T08:48:44;17.60;1.00
3626;DHT22;1827;50.534;8.316;2023-08-06T08:51:10;17.60;1.00
3626;DHT22;1827;50.534;8.316;2023-08-06T08:53:37;17.80;1.00
3626;DHT22;1827;50.534;8.316;2023-08-06T08:56:05;18.20;1.00
3626;DHT22;1827;50.534;8.316;2023-08-06T08:58:31;18.50;1.00
3626;DHT22;1827;50.534;8.316;2023-08-06T09:00:59;18.90;1.00
3626;DHT22;1827;50.534;8.316;2023-08-06T09:03:27;19.40;1.00
3626;DHT22;1827;50.534;8.316;2023-08-06T09:05:53;19.90;1.00
3626;DHT22;1827;50.534;8.316;2023-08-06T09:08:21;20.20;1.00
3626;DHT22;1827;50.534;8.316;2023-08-06T09:10:48;19.70;1.00
3626;DHT22;1827;50.534;8.316;2023-08-06T09:13:15;19.90;1.00
3626;DHT22;1827;50.534;8.316;2023-08-06T09:15:41;19.50;1.00
3626;DHT22;1827;50.534;8.316;2023-08-06T09:18:12;19.40;1.00
3626;DHT22;1827;50.534;8.316;2023-08-06T09:20:38;19.00;1.00
3626;DHT22;1827;50.534;8.316;2023-08-06T09:23:08;19.00;1.00
3626;DHT22;1827;50.534;8.316;2023-08-06T09:25:36;19.40;1.00
3626;DHT22;1827;50.534;8.316;2023-08-06T09:28:03;20.50;1.00
3626;DHT22;1827;50.534;8.316;2023-08-06T09:30:29;20.50;1.00
3626;DHT22;1827;50.534;8.316;2023-08-06T09:32:56;21.30;1.00
3626;DHT22;1827;50.534;8.316;2023-08-06T09:35:22;21.20;99.90
3626;DHT22;1827;50.534;8.316;2023-08-06T09:37:48;20.90;99.90
3626;DHT22;1827;50.534;8.316;2023-08-06T09:42:52;20.50;99.90
3626;DHT22;1827;50.534;8.316;2023-08-06T09:45:18;20.20;99.90
3626;DHT22;1827;50.534;8.316;2023-08-06T09:47:43;20.20;99.90
3626;DHT22;1827;50.534;8.316;2023-08-06T09:50:19;20.20;99.90
3626;DHT22;1827;50.534;8.316;2023-08-06T09:52:48;21.00;99.90
3626;DHT22;1827;50.534;8.316;2023-08-06T09:55:15;21.20;99.90
3626;DHT22;1827;50.534;8.316;2023-08-06T09:57:41;20.20;99.90
3626;DHT22;1827;50.534;8.316;2023-08-06T10:00:08;20.00;99.90
3626;DHT22;1827;50.534;8.316;2023-08-06T10:02:38;19.40;99.90
3626;DHT22;1827;50.534;8.316;2023-08-06T10:05:05;18.70;99.90
3626;DHT22;1827;50.534;8.316;2023-08-06T10:07:31;18.70;99.90
3626;DHT22;1827;50.534;8.316;2023-08-06T10:09:58;18.90;99.90
3626;DHT22;1827;50.534;8.316;2023-08-06T10:12:25;19.20;1.00
3626;DHT22;1827;50.534;8.316;2023-08-06T10:14:52;18.90;1.00
3626;DHT22;1827;50.534;8.316;2023-08-06T10:17:19;19.50;1.00
3626;DHT22;1827;50.534;8.316;2023-08-06T10:19:46;20.00;1.00
3626;DHT22;1827;50.534;8.316;2023-08-06T10:22:13;20.70;1.00
3626;DHT22;1827;50.534;8.316;2023-08-06T10:27:11;22.90;1.00
3626;DHT22;1827;50.534;8.316;2023-08-06T10:29:37;23.50;1.00
3626;DHT22;1827;50.534;8.316;2023-08-06T10:32:03;22.90;1.00
3626;DHT22;1827;50.534;8.316;2023-08-06T10:37:16;21.30;99.90
3626;DHT22;1827;50.534;8.316;2023-08-06T10:39:53;20.30;99.90
3626;DHT22;1827;50.534;8.316;2023-08-06T10:42:22;19.90;99.90
3626;DHT22;1827;50.534;8.316;2023-08-06T10:47:39;19.90;1.00
3626;DHT22;1827;50.534;8.316;2023-08-06T10:50:06;20.30;1.00
3626;DHT22;1827;50.534;8.316;2023-08-06T10:52:32;20.80;1.00
3626;DHT22;1827;50.534;8.316;2023-08-06T10:54:58;20.70;1.00
3626;DHT22;1827;50.534;8.316;2023-08-06T10:57:24;21.30;1.00
3626;DHT22;1827;50.534;8.316;2023-08-06T10:59:50;21.80;99.90
3626;DHT22;1827;50.534;8.316;2023-08-06T11:02:17;22.10;99.90
3626;DHT22;1827;50.534;8.316;2023-08-06T11:04:43;21.90;99.90
3626;DHT22;1827;50.534;8.316;2023-08-06T11:07:09;22.50;99.90
3626;DHT22;1827;50.534;8.316;2023-08-06T11:09:35;22.60;99.90
3626;DHT22;1827;50.534;8.316;2023-08-06T11:12:01;22.40;99.90
3626;DHT22;1827;50.534;8.316;2023-08-06T11:14:27;22.00;99.90
3626;DHT22;1827;50.534;8.316;2023-08-06T11:16:53;22.20;99.90
3626;DHT22;1827;50.534;8.316;2023-08-06T11:19:19;22.10;99.90
3626;DHT22;1827;50.534;8.316;2023-08-06T11:21:45;21.60;99.90
3626;DHT22;1827;50.534;8.316;2023-08-06T11:24:13;21.60;99.90
3626;DHT22;1827;50.534;8.316;2023-08-06T11:26:38;22.10;99.90
3626;DHT22;1827;50.534;8.316;2023-08-06T11:29:05;22.40;99.90
3626;DHT22;1827;50.534;8.316;2023-08-06T11:31:31;22.30;99.90
3626;DHT22;1827;50.534;8.316;2023-08-06T11:33:58;21.40;99.90
3626;DHT22;1827;50.534;8.316;2023-08-06T11:36:33;19.90;99.90
3626;DHT22;1827;50.534;8.316;2023-08-06T11:39:02;18.90;99.90
3626;DHT22;1827;50.534;8.316;2023-08-06T11:41:31;18.20;99.90
3626;DHT22;1827;50.534;8.316;2023-08-06T11:43:58;17.80;1.00
3626;DHT22;1827;50.534;8.316;2023-08-06T11:46:24;17.50;1.00
3626;DHT22;1827;50.534;8.316;2023-08-06T11:48:51;17.40;1.00
3626;DHT22;1827;50.534;8.316;2023-08-06T11:51:17;17.20;1.00
3626;DHT22;1827;50.534;8.316;2023-08-06T11:53:48;17.10;1.00
3626;DHT22;1827;50.534;8.316;2023-08-06T11:56:14;16.60;1.00
3626;DHT22;1827;50.534;8.316;2023-08-06T11:58:40;16.50;1.00
3626;DHT22;1827;50.534;8.316;2023-08-06T12:01:06;16.20;1.00
3626;DHT22;1827;50.534;8.316;2023-08-06T12:03:41;16.00;1.00
3626;DHT22;1827;50.534;8.316;2023-08-06T12:06:09;15.80;1.00
3626;DHT22;1827;50.534;8.316;2023-08-06T12:08:40;15.60;1.00
3626;DHT22;1827;50.534;8.316;2023-08-06T12:11:10;15.50;1.00
3626;DHT22;1827;50.534;8.316;2023-08-06T12:13:36;15.40;1.00
3626;DHT22;1827;50.534;8.316;2023-08-06T12:16:02;15.30;1.00
3626;DHT22;1827;50.534;8.316;2023-08-06T12:18:28;15.20;1.00
3626;DHT22;1827;50.534;8.316;2023-08-06T12:20:53;15.20;1.00
3626;DHT22;1827;50.534;8.316;2023-08-06T12:23:25;15.20;1.00
3626;DHT22;1827;50.534;8.316;2023-08-06T12:25:52;15.00;1.00
3626;DHT22;1827;50.534;8.316;2023-08-06T12:28:20;15.00;1.00
3626;DHT22;1827;50.534;8.316;2023-08-06T12:30:47;15.00;1.00
3626;DHT22;1827;50.534;8.316;2023-08-06T12:33:18;15.10;1.00
3626;DHT22;1827;50.534;8.316;2023-08-06T12:35:44;15.10;1.00
3626;DHT22;1827;50.534;8.316;2023-08-06T12:38:10;15.00;1.00
3626;DHT22;1827;50.534;8.316;2023-08-06T12:40:36;15.00;1.00
3626;DHT22;1827;50.534;8.316;2023-08-06T12:43:02;15.00;1.00
3626;DHT22;1827;50.534;8.316;2023-08-06T12:45:28;15.00;1.00
3626;DHT22;1827;50.534;8.316;2023-08-06T12:47:54;14.90;1.00
3626;DHT22;1827;50.534;8.316;2023-08-06T12:50:20;14.90;1.00
3626;DHT22;1827;50.534;8.316;2023-08-06T12:52:52;14.90;1.00
3626;DHT22;1827;50.534;8.316;2023-08-06T12:55:32;14.90;1.00
3626;DHT22;1827;50.534;8.316;2023-08-06T12:58:05;15.00;1.00
3626;DHT22;1827;50.534;8.316;2023-08-06T13:00:32;15.00;1.00
3626;DHT22;1827;50.534;8.316;2023-08-06T13:03:00;15.00;1.00
3626;DHT22;1827;50.534;8.316;2023-08-06T13:05:28;15.00;1.00
3626;DHT22;1827;50.534;8.316;2023-08-06T13:07:56;15.00;1.00
3626;DHT22;1827;50.534;8.316;2023-08-06T13:10:25;15.00;1.00
3626;DHT22;1827;50.534;8.316;2023-08-06T13:12:53;15.10;1.00
3626;DHT22;1827;50.534;8.316;2023-08-06T13:15:20;15.10;1.00
3626;DHT22;1827;50.534;8.316;2023-08-06T13:17:50;15.20;1.00
3626;DHT22;1827;50.534;8.316;2023-08-06T13:20:18;15.10;1.00
3626;DHT22;1827;50.534;8.316;2023-08-06T13:22:47;15.10;1.00
3626;DHT22;1827;50.534;8.316;2023-08-06T13:25:21;15.20;1.00
3626;DHT22;1827;50.534;8.316;2023-08-06T13:27:48;15.20;1.00
3626;DHT22;1827;50.534;8.316;2023-08-06T13:30:14;15.30;1.00
3626;DHT22;1827;50.534;8.316;2023-08-06T13:32:42;15.30;1.00
3626;DHT22;1827;50.534;8.316;2023-08-06T13:35:11;15.40;1.00
3626;DHT22;1827;50.534;8.316;2023-08-06T13:37:37;15.40;1.00
3626;DHT22;1827;50.534;8.316;2023-08-06T13:40:05;15.40;1.00
3626;DHT22;1827;50.534;8.316;2023-08-06T13:42:33;15.50;1.00
3626;DHT22;1827;50.534;8.316;2023-08-06T13:45:06;15.60;1.00
3626;DHT22;1827;50.534;8.316;2023-08-06T13:47:35;15.60;1.00
3626;DHT22;1827;50.534;8.316;2023-08-06T13:50:05;15.60;1.00
3626;DHT22;1827;50.534;8.316;2023-08-06T13:52:34;15.50;1.00
3626;DHT22;1827;50.534;8.316;2023-08-06T13:55:04;15.50;1.00
3626;DHT22;1827;50.534;8.316;2023-08-06T13:57:32;15.50;1.00
3626;DHT22;1827;50.534;8.316;2023-08-06T14:00:01;15.40;1.00
3626;DHT22;1827;50.534;8.316;2023-08-06T14:02:39;15.40;1.00
3626;DHT22;1827;50.534;8.316;2023-08-06T14:05:06;15.40;1.00
3626;DHT22;1827;50.534;8.316;2023-08-06T14:07:33;15.50;1.00
3626;DHT22;1827;50.534;8.316;2023-08-06T14:10:05;15.50;1.00
3626;DHT22;1827;50.534;8.316;2023-08-06T14:12:32;15.40;1.00
3626;DHT22;1827;50.534;8.316;2023-08-06T14:14:58;15.40;1.00
3626;DHT22;1827;50.534;8.316;2023-08-06T14:17:24;15.50;1.00
3626;DHT22;1827;50.534;8.316;2023-08-06T14:19:51;15.50;1.00
3626;DHT22;1827;50.534;8.316;2023-08-06T14:22:18;15.50;1.00
3626;DHT22;1827;50.534;8.316;2023-08-06T14:24:44;15.60;1.00
3626;DHT22;1827;50.534;8.316;2023-08-06T14:27:14;15.70;1.00
3626;DHT22;1827;50.534;8.316;2023-08-06T14:29:41;15.50;1.00
3626;DHT22;1827;50.534;8.316;2023-08-06T14:32:08;15.50;1.00
3626;DHT22;1827;50.534;8.316;2023-08-06T14:34:36;15.50;1.00
3626;DHT22;1827;50.534;8.316;2023-08-06T14:37:04;15.50;1.00
3626;DHT22;1827;50.534;8.316;2023-08-06T14:39:34;15.60;1.00
3626;DHT22;1827;50.534;8.316;2023-08-06T14:42:02;15.60;1.00
3626;DHT22;1827;50.534;8.316;2023-08-06T14:44:32;15.70;1.00
3626;DHT22;1827;50.534;8.316;2023-08-06T14:46:58;15.80;1.00
3626;DHT22;1827;50.534;8.316;2023-08-06T14:49:25;15.80;1.00
3626;DHT22;1827;50.534;8.316;2023-08-06T14:51:56;15.80;1.00
3626;DHT22;1827;50.534;8.316;2023-08-06T14:54:28;15.70;1.00
3626;DHT22;1827;50.534;8.316;2023-08-06T14:56:58;15.70;1.00
3626;DHT22;1827;50.534;8.316;2023-08-06T14:59:26;15.70;1.00
3626;DHT22;1827;50.534;8.316;2023-08-06T15:01:56;15.70;1.00
3626;DHT22;1827;50.534;8.316;2023-08-06T15:04:23;15.80;1.00
3626;DHT22;1827;50.534;8.316;2023-08-06T15:06:50;15.80;1.00
3626;DHT22;1827;50.534;8.316;2023-08-06T15:09:19;15.80;1.00
3626;DHT22;1827;50.534;8.316;2023-08-06T15:11:50;15.60;1.00
3626;DHT22;1827;50.534;8.316;2023-08-06T15:14:25;15.60;1.00
3626;DHT22;1827;50.534;8.316;2023-08-06T15:16:51;15.50;1.00
3626;DHT22;1827;50.534;8.316;2023-08-06T15:19:19;15.50;1.00
3626;DHT22;1827;50.534;8.316;2023-08-06T15:21:48;15.40;1.00
3626;DHT22;1827;50.534;8.316;2023-08-06T15:24:15;15.40;1.00
3626;DHT22;1827;50.534;8.316;2023-08-06T15:26:43;15.20;1.00
3626;DHT22;1827;50.534;8.316;2023-08-06T15:29:17;15.00;1.00
3626;DHT22;1827;50.534;8.316;2023-08-06T15:31:46;15.00;1.00
3626;DHT22;1827;50.534;8.316;2023-08-06T15:34:14;14.80;1.00
3626;DHT22;1827;50.534;8.316;2023-08-06T15:36:41;14.80;1.00
3626;DHT22;1827;50.534;8.316;2023-08-06T15:39:07;14.90;1.00
3626;DHT22;1827;50.534;8.316;2023-08-06T15:41:36;15.00;1.00
3626;DHT22;1827;50.534;8.316;2023-08-06T15:44:04;15.00;1.00
3626;DHT22;1827;50.534;8.316;2023-08-06T15:46:34;15.00;1.00
3626;DHT22;1827;50.534;8.316;2023-08-06T15:49:06;15.00;1.00
3626;DHT22;1827;50.534;8.316;2023-08-06T15:51:36;14.90;1.00
3626;DHT22;1827;50.534;8.316;2023-08-06T15:54:02;14.80;1.00
3626;DHT22;1827;50.534;8.316;2023-08-06T15:56:31;14.80;1.00
3626;DHT22;1827;50.534;8.316;2023-08-06T16:01:45;14.60;1.00
3626;DHT22;1827;50.534;8.316;2023-08-06T16:04:11;14.70;1.00
3626;DHT22;1827;50.534;8.316;2023-08-06T16:06:42;14.70;1.00
3626;DHT22;1827;50.534;8.316;2023-08-06T16:09:10;14.60;1.00
3626;DHT22;1827;50.534;8.316;2023-08-06T16:11:40;14.60;1.00
3626;DHT22;1827;50.534;8.316;2023-08-06T16:14:08;14.40;1.00
3626;DHT22;1827;50.534;8.316;2023-08-06T16:16:39;14.50;1.00
3626;DHT22;1827;50.534;8.316;2023-08-06T16:19:09;14.40;1.00
3626;DHT22;1827;50.534;8.316;2023-08-06T16:21:39;14.40;1.00
3626;DHT22;1827;50.534;8.316;2023-08-06T16:24:05;14.40;1.00
3626;DHT22;1827;50.534;8.316;2023-08-06T16:26:35;14.40;1.00
3626;DHT22;1827;50.534;8.316;2023-08-06T16:29:05;14.50;1.00